Time;durP1;ratioP1;P1;durP2;ratioP2;P2;SDS_P1;SDS_P2;PMS_P1;PMS_P2;Temp;Humidity;BMP_temperature;BMP_pressure;BME280_temperature;BME280_humidity;BME280_pressure;Samples;Min_cycle;Max_cycle;Signal;HPM_P1;HPM_P2
2023/10/03 00:02:18;;;;;;;12.25;7.65;;;17.00;1.00;;;;;;10478892;28;20263;-80
2023/10/03 00:07:39;;;;;;;13.13;8.00;;;17.00;1.00;;;;;;10446309;28;20268;-79
2023/10/03 00:13:00;;;;;;;12.45;7.68;;;17.00;1.00;;;;;;10477578;28;20501;-80
2023/10/03 00:18:22;;;;;;;13.48;7.47;;;16.90;99.90;;;;;;10478073;28;20192;-80
2023/10/03 00:23:43;;;;;;;14.95;8.45;;;16.80;99.90;;;;;;10478060;28;20210;-81
2023/10/03 00:29:09;;;;;;;13.98;9.05;;;16.80;1.00;;;;;;10475961;28;20465;-80
2023/10/03 00:34:31;;;;;;;11.88;7.78;;;16.70;99.90;;;;;;10476902;28;20191;-81
2023/10/03 00:39:53;;;;;;;14.45;8.73;;;16.60;99.90;;;;;;10476986;28;20190;-80
2023/10/03 00:45:19;;;;;;;13.55;8.30;;;16.50;99.90;;;;;;10479156;28;20239;-79
2023/10/03 00:50:44;;;;;;;14.43;8.20;;;16.50;99.90;;;;;;10471205;28;20196;-81
2023/10/03 00:56:11;;;;;;;13.80;7.85;;;16.40;1.00;;;;;;10485939;28;20556;-80
2023/10/03 01:01:33;;;;;;;13.43;8.15;;;16.40;1.00;;;;;;10483304;28;20201;-80
2023/10/03 01:06:55;;;;;;;14.60;9.65;;;16.30;99.90;;;;;;10467256;28;20242;-81
2023/10/03 01:12:18;;;;;;;16.95;9.38;;;16.20;99.90;;;;;;10453220;28;20493;-81
2023/10/03 01:17:40;;;;;;;18.30;10.02;;;16.20;1.00;;;;;;10454172;28;20207;-80
2023/10/03 01:23:06;;;;;;;15.52;9.48;;;16.10;1.00;;;;;;10453288;28;20198;-81
2023/10/03 01:28:27;;;;;;;18.90;8.95;;;16.10;1.00;;;;;;10468053;28;20208;-82
2023/10/03 01:33:48;;;;;;;17.50;8.73;;;16.10;1.00;;;;;;10497253;28;20233;-81
2023/10/03 01:39:11;;;;;;;12.90;7.50;;;16.00;1.00;;;;;;10469517;28;20199;-79
2023/10/03 01:44:34;;;;;;;12.80;8.10;;;15.90;1.00;;;;;;10454789;28;20226;-80
2023/10/03 01:49:55;;;;;;;12.02;7.72;;;15.90;1.00;;;;;;10482661;28;20278;-81
2023/10/03 01:55:18;;;;;;;13.13;8.25;;;15.80;78.80;;;;;;10464898;28;20207;-81
2023/10/03 02:00:40;;;;;;;13.73;7.35;;;15.70;47.90;;;;;;10451485;28;20240;-80
2023/10/03 02:06:03;;;;;;;13.32;7.35;;;15.60;12.90;;;;;;10467845;28;20234;-81
2023/10/03 02:11:27;;;;;;;13.07;6.95;;;15.50;1.00;;;;;;10466405;28;20203;-81
2023/10/03 02:16:51;;;;;;;14.30;7.82;;;15.50;99.90;;;;;;10450861;28;20203;-81
2023/10/03 02:22:14;;;;;;;12.55;7.45;;;15.40;99.90;;;;;;10453730;28;20241;-81
2023/10/03 02:27:35;;;;;;;15.70;7.97;;;15.40;99.90;;;;;;10465874;28;20228;-78
2023/10/03 02:33:04;;;;;;;15.27;7.80;;;15.30;1.00;;;;;;10466664;28;20482;-82
2023/10/03 02:38:29;;;;;;;12.45;7.75;;;15.30;1.00;;;;;;10463947;28;20214;-81
2023/10/03 02:43:51;;;;;;;13.55;7.68;;;15.20;1.00;;;;;;10469224;28;20250;-81
2023/10/03 02:49:18;;;;;;;12.77;7.00;;;15.20;1.00;;;;;;10466413;28;20286;-81
2023/10/03 02:54:39;;;;;;;12.95;7.78;;;15.00;99.90;;;;;;10480246;28;20193;-80
2023/10/03 03:00:04;;;;;;;15.23;7.88;;;14.90;99.90;;;;;;10454126;28;20194;-80
2023/10/03 03:05:35;;;;;;;13.95;7.32;;;14.90;99.90;;;;;;10439087;28;20225;-81
2023/10/03 03:11:00;;;;;;;12.82;7.15;;;14.80;99.90;;;;;;10450976;28;20256;-80
2023/10/03 03:16:23;;;;;;;12.43;7.53;;;14.70;1.00;;;;;;10483284;28;20206;-81
2023/10/03 03:21:44;;;;;;;12.32;7.05;;;14.70;99.90;;;;;;10479410;28;20190;-81
2023/10/03 03:27:12;;;;;;;11.57;7.55;;;14.60;99.90;;;;;;10479190;28;20228;-81
2023/10/03 03:32:32;;;;;;;12.70;7.60;;;14.50;27.30;;;;;;10459750;28;20358;-81
2023/10/03 03:37:57;;;;;;;10.48;6.95;;;14.50;1.00;;;;;;10461829;28;20225;-81
2023/10/03 03:43:21;;;;;;;10.60;6.95;;;14.40;1.00;;;;;;10479076;28;20201;-81
2023/10/03 03:48:42;;;;;;;14.45;8.35;;;14.40;99.90;;;;;;10466676;28;20217;-81
2023/10/03 03:54:08;;;;;;;12.65;7.90;;;14.40;1.00;;;;;;10479295;28;20243;-81
2023/10/03 03:59:29;;;;;;;12.63;7.68;;;14.40;1.00;;;;;;10478620;28;20191;-81
2023/10/03 04:04:50;;;;;;;11.52;8.35;;;14.50;99.90;;;;;;10456681;28;20236;-81
2023/10/03 04:10:14;;;;;;;15.02;8.05;;;14.50;99.90;;;;;;10463066;28;20287;-80
2023/10/03 04:15:44;;;;;;;13.95;8.27;;;14.40;99.90;;;;;;10445855;28;20193;-80
2023/10/03 04:21:05;;;;;;;14.57;9.30;;;14.30;99.90;;;;;;10476624;28;20208;-81
2023/10/03 04:26:27;;;;;;;15.55;10.45;;;14.30;99.90;;;;;;10477836;28;20224;-81
2023/10/03 04:31:49;;;;;;;14.20;9.40;;;14.20;99.90;;;;;;10477052;28;20196;-80
2023/10/03 04:37:10;;;;;;;20.98;11.63;;;14.20;1.00;;;;;;10468220;28;20204;-80
2023/10/03 04:42:32;;;;;;;18.95;12.65;;;14.10;99.90;;;;;;10443847;28;20505;-81
2023/10/03 04:47:53;;;;;;;25.27;13.38;;;14.10;99.90;;;;;;10458525;28;20292;-81
2023/10/03 04:53:15;;;;;;;23.15;12.68;;;14.10;99.90;;;;;;10446056;28;20199;-80
2023/10/03 04:58:36;;;;;;;17.40;10.50;;;14.10;99.90;;;;;;10446061;28;20435;-80
2023/10/03 05:03:57;;;;;;;17.40;10.68;;;14.10;99.90;;;;;;10475247;28;20231;-82
2023/10/03 05:09:19;;;;;;;17.50;10.20;;;14.10;99.90;;;;;;10475669;28;20313;-81
2023/10/03 05:14:40;;;;;;;17.27;11.00;;;14.10;99.90;;;;;;10459722;28;20280;-81
2023/10/03 05:20:05;;;;;;;20.15;12.48;;;14.20;99.90;;;;;;10475641;28;20195;-81
2023/10/03 05:25:27;;;;;;;16.80;10.70;;;14.30;99.90;;;;;;10476556;28;20224;-80
2023/10/03 05:30:50;;;;;;;16.10;9.07;;;14.30;1.00;;;;;;10482891;28;20427;-82
2023/10/03 05:36:18;;;;;;;14.40;9.15;;;14.30;1.00;;;;;;10430856;28;20211;-79
2023/10/03 05:41:41;;;;;;;13.00;8.73;;;14.30;1.00;;;;;;10443635;28;20254;-80
2023/10/03 05:47:03;;;;;;;15.38;8.68;;;14.40;99.90;;;;;;10482501;28;20230;-78
2023/10/03 05:52:24;;;;;;;13.32;8.90;;;14.40;99.90;;;;;;10482979;28;20191;-79
2023/10/03 05:57:45;;;;;;;17.92;11.52;;;14.50;99.90;;;;;;10482290;28;20216;-81
2023/10/03 06:03:07;;;;;;;19.40;10.32;;;14.60;99.90;;;;;;10482249;28;20231;-80
2023/10/03 06:08:28;;;;;;;19.58;10.02;;;14.70;1.00;;;;;;10464486;28;20275;-80
2023/10/03 06:13:49;;;;;;;20.17;11.00;;;14.80;1.00;;;;;;10463919;28;20207;-81
2023/10/03 06:19:11;;;;;;;18.48;11.00;;;15.00;99.90;;;;;;10494086;28;20198;-80
2023/10/03 06:24:33;;;;;;;19.08;12.88;;;15.20;99.90;;;;;;10481092;28;20215;-80
2023/10/03 06:29:54;;;;;;;24.50;12.45;;;15.30;99.90;;;;;;10478230;28;20295;-80
2023/10/03 06:35:17;;;;;;;14.82;9.35;;;15.70;1.00;;;;;;10440460;28;20195;-81
2023/10/03 06:40:40;;;;;;;14.13;8.40;;;16.50;96.50;;;;;;10439399;28;20238;-81
2023/10/03 06:46:05;;;;;;;14.05;8.32;;;;;;;;;;10477218;28;20251;-81
2023/10/03 06:51:27;;;;;;;14.32;7.50;;;;;;;;;;10480867;28;20188;-79
2023/10/03 06:56:50;;;;;;;13.32;8.70;;;;;;;;;;10480843;28;20261;-80
2023/10/03 07:02:11;;;;;;;11.55;7.20;;;21.50;6.50;;;;;;10461793;28;20474;-81
2023/10/03 07:07:34;;;;;;;15.35;7.85;;;23.10;1.00;;;;;;10462158;28;20436;-81
2023/10/03 07:12:57;;;;;;;17.25;9.13;;;;;;;;;;10437645;28;20196;-81
2023/10/03 07:18:20;;;;;;;14.48;6.90;;;23.30;99.90;;;;;;10462067;28;20200;-80
2023/10/03 07:23:44;;;;;;;11.25;6.20;;;;;;;;;;10477697;28;20249;-80
2023/10/03 07:29:06;;;;;;;10.38;6.82;;;24.20;1.00;;;;;;10440775;28;20522;-79
2023/10/03 07:34:27;;;;;;;10.90;7.00;;;;;;;;;;10481976;28;20212;-79
2023/10/03 07:39:49;;;;;;;17.70;7.13;;;;;;;;;;10476068;28;20521;-87
2023/10/03 07:45:11;;;;;;;10.90;6.18;;;;;;;;;;10456715;28;20231;-80
2023/10/03 07:50:35;;;;;;;10.35;5.57;;;25.50;99.90;;;;;;10471965;28;20196;-79
2023/10/03 07:55:59;;;;;;;9.45;6.30;;;26.00;99.90;;;;;;10473483;28;20397;-79
2023/10/03 08:01:24;;;;;;;9.82;5.80;;;26.60;99.90;;;;;;10473342;28;20506;-80
2023/10/03 08:06:46;;;;;;;11.43;6.43;;;;;;;;;;10472543;28;20242;-79
2023/10/03 08:12:11;;;;;;;10.50;6.22;;;27.60;99.90;;;;;;10457701;28;20196;-78
2023/10/03 08:17:36;;;;;;;9.82;7.20;;;28.20;99.90;;;;;;10469355;28;20204;-78
2023/10/03 08:23:03;;;;;;;14.73;6.50;;;28.40;99.90;;;;;;10524257;28;20502;-82
2023/10/03 08:28:28;;;;;;;14.32;6.22;;;27.80;99.90;;;;;;10463968;28;20270;-87
2023/10/03 08:33:53;;;;;;;17.60;7.57;;;27.30;99.90;;;;;;10450504;28;20214;-77
2023/10/03 08:39:14;;;;;;;11.70;7.30;;;27.10;99.90;;;;;;10453477;28;20203;-79
2023/10/03 08:44:41;;;;;;;17.90;8.35;;;26.70;99.90;;;;;;10484174;28;20207;-83
2023/10/03 08:50:10;;;;;;;17.08;9.55;;;26.50;99.90;;;;;;10486880;28;20211;-77
2023/10/03 08:55:32;;;;;;;13.48;8.27;;;25.60;99.90;;;;;;10482085;28;20230;-78
2023/10/03 09:01:02;;;;;;;18.95;8.73;;;25.10;99.90;;;;;;10469577;28;20197;-77
2023/10/03 09:06:26;;;;;;;15.00;7.57;;;24.40;99.90;;;;;;10478303;28;20293;-78
2023/10/03 09:11:51;;;;;;;15.73;7.70;;;24.00;1.00;;;;;;10478443;28;20184;-78
2023/10/03 09:17:21;;;;;;;14.70;7.82;;;23.20;99.90;;;;;;10476849;28;20215;-77
2023/10/03 09:22:46;;;;;;;16.08;8.20;;;23.10;99.90;;;;;;10498284;28;20218;-77
2023/10/03 09:28:09;;;;;;;14.25;8.38;;;23.80;99.90;;;;;;10484719;28;20249;-78
2023/10/03 09:33:31;;;;;;;15.27;8.55;;;24.20;99.90;;;;;;10477288;28;20215;-77
2023/10/03 09:38:53;;;;;;;21.20;8.57;;;24.70;99.90;;;;;;10479122;28;20227;-76
2023/10/03 09:44:19;;;;;;;14.57;8.30;;;25.30;99.90;;;;;;10464152;28;20271;-78
2023/10/03 09:49:41;;;;;;;12.63;8.20;;;25.60;99.90;;;;;;10476858;28;20203;-78
2023/10/03 09:55:17;;;;;;;28.17;8.68;;;25.30;99.90;;;;;;10446257;28;20203;-78
2023/10/03 10:00:41;;;;;;;23.85;8.05;;;25.20;99.90;;;;;;10462890;28;20275;-78
2023/10/03 10:06:20;;;;;;;18.08;8.38;;;25.80;99.90;;;;;;10475759;28;20293;-78
2023/10/03 10:12:12;;;;;;;24.02;8.80;;;26.40;99.90;;;;;;10490456;28;20247;-78
2023/10/03 10:17:51;;;;;;;16.45;8.82;;;25.80;99.90;;;;;;10475764;28;20382;-78
2023/10/03 10:28:34;;;;;;;20.63;10.02;;;26.60;99.90;;;;;;10473521;28;20542;-78
2023/10/03 10:34:29;;;;;;;26.88;9.90;;;26.20;99.90;;;;;;10475770;28;20199;-78
2023/10/03 10:39:57;;;;;;;18.27;8.13;;;26.60;99.90;;;;;;10337597;28;20214;-78
2023/10/03 10:45:20;;;;;;;15.32;8.90;;;27.70;78.80;;;;;;10332822;28;20551;-80
2023/10/03 10:51:21;;;;;;;26.50;9.70;;;28.10;1.00;;;;;;10337524;28;20223;-78
2023/10/03 10:56:43;;;;;;;17.17;7.85;;;27.90;99.90;;;;;;10241835;28;20279;-78
2023/10/03 11:02:06;;;;;;;31.40;8.65;;;28.40;99.90;;;;;;10254435;29;20278;-78
2023/10/03 11:07:29;;;;;;;16.33;7.72;;;28.60;99.90;;;;;;10267693;28;20252;-78
2023/10/03 11:13:03;;;;;;;13.50;7.00;;;28.80;99.90;;;;;;10277073;28;20237;-79
2023/10/03 11:18:30;;;;;;;17.48;7.75;;;29.00;99.90;;;;;;10307275;28;20836;-78
2023/10/03 11:24:19;;;;;;;16.60;7.18;;;28.70;99.90;;;;;;10315057;28;20243;-78
2023/10/03 11:29:46;;;;;;;15.65;6.72;;;27.80;99.90;;;;;;10471558;28;20220;-79
2023/10/03 11:35:19;;;;;;;14.07;6.45;;;26.90;99.90;;;;;;10472020;28;20277;-78
2023/10/03 11:40:43;;;;;;;9.30;5.07;;;26.30;99.90;;;;;;10458584;28;20207;-78
2023/10/03 11:46:05;;;;;;;17.13;8.65;;;25.90;99.90;;;;;;10473244;28;20219;-77
2023/10/03 11:51:26;;;;;;;12.80;6.10;;;25.60;99.90;;;;;;10455384;28;20211;-77
2023/10/03 11:56:48;;;;;;;12.38;6.05;;;25.20;99.90;;;;;;10454206;28;20307;-78
2023/10/03 12:02:11;;;;;;;17.25;7.75;;;25.00;99.90;;;;;;10431521;28;20188;-78
2023/10/03 12:07:32;;;;;;;10.70;5.90;;;25.00;99.90;;;;;;10476409;28;20274;-77
2023/10/03 12:12:53;;;;;;;13.00;6.90;;;25.10;99.90;;;;;;10472876;28;20283;-78
2023/10/03 12:18:18;;;;;;;16.83;6.90;;;25.20;99.90;;;;;;10472429;28;20191;-79
2023/10/03 12:23:39;;;;;;;23.60;7.05;;;25.00;99.90;;;;;;10471514;28;20424;-78
2023/10/03 12:29:04;;;;;;;15.93;7.30;;;25.00;99.90;;;;;;10472669;28;20219;-78
2023/10/03 12:34:27;;;;;;;20.70;7.95;;;24.90;99.90;;;;;;10463968;28;20207;-79
2023/10/03 12:39:48;;;;;;;22.63;9.00;;;24.80;99.90;;;;;;10428159;28;20200;-88
2023/10/03 12:45:13;;;;;;;21.27;8.85;;;24.50;99.90;;;;;;10473128;28;20410;-77
2023/10/03 12:50:35;;;;;;;28.42;9.65;;;24.40;99.90;;;;;;10480343;28;20214;-77
2023/10/03 12:55:57;;;;;;;48.60;10.95;;;24.00;99.90;;;;;;10456132;28;20478;-77
2023/10/03 13:01:19;;;;;;;18.25;9.27;;;24.10;99.90;;;;;;10385650;28;20273;-78
2023/10/03 13:06:45;;;;;;;24.88;9.38;;;23.90;99.90;;;;;;10461529;28;20596;-79
2023/10/03 13:12:08;;;;;;;21.88;9.05;;;23.90;99.90;;;;;;10457428;28;20552;-79
2023/10/03 13:17:29;;;;;;;14.45;8.65;;;23.80;99.90;;;;;;10484233;28;20261;-78
2023/10/03 13:22:51;;;;;;;19.75;9.80;;;24.00;99.90;;;;;;10470572;28;20192;-78
2023/10/03 13:28:12;;;;;;;19.25;9.82;;;24.30;99.90;;;;;;10439062;28;20588;-78
2023/10/03 13:33:36;;;;;;;20.40;10.52;;;24.50;99.90;;;;;;10433992;28;20618;-79
2023/10/03 13:38:59;;;;;;;22.40;10.43;;;24.30;99.90;;;;;;10455920;28;20526;-79
2023/10/03 13:44:20;;;;;;;23.40;10.98;;;24.30;99.90;;;;;;10438550;28;20250;-80
2023/10/03 13:49:41;;;;;;;21.90;10.95;;;24.30;99.90;;;;;;10418269;28;20296;-78
2023/10/03 13:55:06;;;;;;;27.42;12.07;;;24.20;99.90;;;;;;10436492;28;20238;-80
2023/10/03 14:00:35;;;;;;;25.88;11.55;;;24.10;99.90;;;;;;10447170;28;20515;-79
2023/10/03 14:05:56;;;;;;;26.90;11.77;;;24.10;99.90;;;;;;10433163;28;20229;-79
2023/10/03 14:11:20;;;;;;;24.77;11.00;;;24.00;99.90;;;;;;10406689;28;20267;-81
2023/10/03 14:16:42;;;;;;;26.20;10.50;;;23.90;99.90;;;;;;10435087;28;20224;-77
2023/10/03 14:22:03;;;;;;;21.30;10.13;;;23.80;99.90;;;;;;10436902;28;20261;-78
2023/10/03 14:27:24;;;;;;;22.90;11.23;;;23.80;99.90;;;;;;10475365;28;20233;-78
2023/10/03 14:32:46;;;;;;;22.25;10.93;;;23.70;99.90;;;;;;10483443;28;20197;-79
2023/10/03 14:38:08;;;;;;;22.13;11.00;;;;;;;;;;10429553;28;20323;-77
2023/10/03 14:43:32;;;;;;;21.65;11.45;;;;;;;;;;10431809;28;20208;-77
2023/10/03 14:48:53;;;;;;;20.17;11.18;;;23.40;99.90;;;;;;10414768;28;20293;-78
2023/10/03 14:54:18;;;;;;;28.63;14.90;;;23.20;99.90;;;;;;10420233;28;20330;-80
2023/10/03 14:59:40;;;;;;;24.13;11.25;;;23.20;99.90;;;;;;10432536;28;20231;-78
2023/10/03 15:05:02;;;;;;;22.33;11.52;;;23.10;99.90;;;;;;10434205;28;20192;-83
2023/10/03 15:10:23;;;;;;;29.35;11.68;;;23.00;1.00;;;;;;10459712;28;20456;-80
2023/10/03 15:15:44;;;;;;;25.85;12.13;;;22.90;1.00;;;;;;10437014;28;20219;-78
2023/10/03 15:21:07;;;;;;;26.02;11.40;;;22.90;1.00;;;;;;10452925;28;20212;-78
2023/10/03 15:26:29;;;;;;;23.40;11.23;;;22.80;99.90;;;;;;10405164;28;20221;-79
2023/10/03 15:31:50;;;;;;;22.98;11.25;;;22.60;99.90;;;;;;10421342;28;20189;-78
2023/10/03 15:37:12;;;;;;;19.60;10.55;;;22.60;99.90;;;;;;10396630;28;20292;-78
2023/10/03 15:42:34;;;;;;;27.40;11.73;;;22.50;99.90;;;;;;10405101;28;20195;-77
2023/10/03 15:47:55;;;;;;;24.73;11.23;;;22.50;99.90;;;;;;10436328;28;20228;-77
2023/10/03 15:53:16;;;;;;;22.95;11.23;;;22.40;99.90;;;;;;10463544;28;20502;-77
2023/10/03 15:58:38;;;;;;;26.05;13.68;;;22.30;1.00;;;;;;10436671;28;20196;-78
2023/10/03 16:03:59;;;;;;;21.85;12.07;;;22.30;99.90;;;;;;10436996;28;20271;-78
2023/10/03 16:09:21;;;;;;;22.90;10.88;;;22.00;99.90;;;;;;10449286;28;20236;-77
2023/10/03 16:14:46;;;;;;;21.65;11.07;;;21.80;1.00;;;;;;10437114;28;20188;-77
2023/10/03 16:20:11;;;;;;;22.85;11.90;;;21.40;1.00;;;;;;10435690;28;20196;-77
2023/10/03 16:25:33;;;;;;;28.88;11.85;;;;;;;;;;10433989;28;20227;-77
2023/10/03 16:30:54;;;;;;;33.72;13.48;;;20.90;99.90;;;;;;10435392;28;20200;-77
2023/10/03 16:36:17;;;;;;;29.80;14.40;;;20.60;1.00;;;;;;10436426;28;20188;-77
2023/10/03 16:41:40;;;;;;;31.83;13.02;;;20.50;1.00;;;;;;10434600;28;20247;-77
2023/10/03 16:47:02;;;;;;;27.35;11.75;;;20.40;1.00;;;;;;10431245;28;20267;-77
2023/10/03 16:52:23;;;;;;;28.30;13.77;;;20.30;1.00;;;;;;10435349;28;20215;-76
2023/10/03 16:57:45;;;;;;;27.90;13.13;;;20.20;1.00;;;;;;10436109;28;20192;-76
2023/10/03 17:03:06;;;;;;;21.65;10.63;;;20.10;1.00;;;;;;10420474;28;20205;-77
2023/10/03 17:08:29;;;;;;;22.50;12.23;;;20.10;1.00;;;;;;10452065;28;20243;-76
2023/10/03 17:13:50;;;;;;;21.02;10.93;;;20.20;1.00;;;;;;10434834;28;20287;-76
2023/10/03 17:19:11;;;;;;;18.52;10.60;;;20.10;1.00;;;;;;10421000;28;20275;-76
2023/10/03 17:24:32;;;;;;;22.45;10.13;;;20.10;1.00;;;;;;10433242;28;20562;-76
2023/10/03 17:29:54;;;;;;;27.85;10.57;;;20.00;1.00;;;;;;10443262;28;20291;-75
2023/10/03 17:35:15;;;;;;;18.77;10.48;;;20.00;1.00;;;;;;10442518;28;20195;-76
2023/10/03 17:40:37;;;;;;;19.75;11.02;;;20.00;1.00;;;;;;10440001;28;20364;-78
2023/10/03 17:45:59;;;;;;;23.23;11.15;;;19.90;1.00;;;;;;10441454;28;20514;-75
2023/10/03 17:51:20;;;;;;;20.58;9.98;;;19.90;1.00;;;;;;10469319;28;20388;-75
2023/10/03 17:56:42;;;;;;;22.88;10.25;;;19.80;1.00;;;;;;10440234;28;20279;-78
2023/10/03 18:02:04;;;;;;;19.45;8.60;;;19.80;1.00;;;;;;10459982;28;20211;-75
2023/10/03 18:07:26;;;;;;;20.58;9.75;;;19.70;1.00;;;;;;10440741;28;20239;-78
2023/10/03 18:12:51;;;;;;;16.63;8.70;;;19.60;1.00;;;;;;10439714;28;20276;-77
2023/10/03 18:18:12;;;;;;;18.60;9.15;;;19.50;1.00;;;;;;10440272;28;20208;-78
2023/10/03 18:23:35;;;;;;;19.52;8.98;;;19.50;1.00;;;;;;10441417;28;20275;-77
2023/10/03 18:28:58;;;;;;;23.88;9.35;;;19.50;1.00;;;;;;10440727;28;20212;-77
2023/10/03 18:34:20;;;;;;;11.55;4.72;;;19.50;18.90;;;;;;10416440;28;20232;-78
2023/10/03 18:39:41;;;;;;;8.90;3.47;;;19.40;1.00;;;;;;10399537;28;20451;-77
2023/10/03 18:45:03;;;;;;;15.35;3.35;;;;;;;;;;10438895;28;20192;-77
2023/10/03 18:50:28;;;;;;;5.88;2.55;;;18.60;60.30;;;;;;10440108;28;20212;-77
2023/10/03 18:55:50;;;;;;;7.93;2.30;;;;;;;;;;10451788;28;20200;-78
2023/10/03 19:01:18;;;;;;;5.07;2.63;;;;;;;;;;10438884;28;20287;-77
2023/10/03 19:06:42;;;;;;;3.78;2.30;;;;;;;;;;10437624;28;20297;-77
2023/10/03 19:12:04;;;;;;;4.93;2.70;;;;;;;;;;10439015;28;20188;-77
2023/10/03 19:17:25;;;;;;;5.15;2.95;;;;;;;;;;10437222;28;20204;-77
2023/10/03 19:22:48;;;;;;;7.28;2.90;;;;;;;;;;10439054;28;20190;-77
2023/10/03 19:28:10;;;;;;;3.55;1.60;;;;;;;;;;10437213;28;20306;-76
2023/10/03 19:33:32;;;;;;;3.05;1.27;;;;;;;;;;10421318;28;20253;-78
2023/10/03 19:38:55;;;;;;;8.18;1.58;;;;;;;;;;10409975;28;20200;-76
2023/10/03 19:44:17;;;;;;;2.60;1.48;;;;;;;;;;10435990;28;20278;-79
2023/10/03 19:49:40;;;;;;;5.05;1.25;;;;;;;;;;10427642;28;20256;-77
2023/10/03 19:55:04;;;;;;;2.97;0.82;;;16.50;26.60;;;;;;10436235;28;20210;-75
2023/10/03 20:00:27;;;;;;;2.13;1.15;;;16.40;1.00;;;;;;10439003;28;20250;-77
2023/10/03 20:05:48;;;;;;;3.60;0.98;;;16.40;95.70;;;;;;10430893;28;20210;-77
2023/10/03 20:11:13;;;;;;;5.97;1.63;;;16.20;99.90;;;;;;10448938;28;20201;-76
2023/10/03 20:16:35;;;;;;;3.10;0.90;;;16.20;99.90;;;;;;10436349;28;20204;-77
2023/10/03 20:21:57;;;;;;;3.47;0.80;;;16.00;1.00;;;;;;10435396;28;20560;-77
2023/10/03 20:27:18;;;;;;;3.58;0.90;;;16.00;99.90;;;;;;10436566;28;20243;-77
2023/10/03 20:32:40;;;;;;;3.28;0.57;;;15.90;1.00;;;;;;10432942;28;20550;-77
2023/10/03 20:38:01;;;;;;;1.05;0.50;;;15.90;11.70;;;;;;10435272;28;20270;-77
2023/10/03 20:43:23;;;;;;;5.68;1.08;;;15.80;14.90;;;;;;10436378;28;20548;-77
2023/10/03 20:48:44;;;;;;;5.50;0.95;;;15.80;13.40;;;;;;10434040;28;20222;-78
2023/10/03 20:54:05;;;;;;;1.45;0.50;;;15.70;1.00;;;;;;10433099;28;20210;-79
2023/10/03 20:59:26;;;;;;;3.45;0.60;;;15.50;99.90;;;;;;10437500;28;20406;-76
2023/10/03 21:04:47;;;;;;;0.88;0.55;;;15.40;1.00;;;;;;10426029;28;20208;-76
2023/10/03 21:10:09;;;;;;;2.72;0.45;;;15.20;1.00;;;;;;10442700;28;20299;-77
2023/10/03 21:15:32;;;;;;;2.28;0.70;;;15.10;1.00;;;;;;10441899;28;20214;-79
2023/10/03 21:20:53;;;;;;;1.60;0.50;;;15.00;1.00;;;;;;10443605;28;20271;-77
2023/10/03 21:26:15;;;;;;;2.67;0.75;;;14.90;1.00;;;;;;10443534;28;20199;-78
2023/10/03 21:31:36;;;;;;;2.00;1.08;;;14.90;99.90;;;;;;10437940;28;20286;-77
2023/10/03 21:36:57;;;;;;;4.88;1.00;;;14.80;1.00;;;;;;10441864;28;20502;-78
2023/10/03 21:42:18;;;;;;;3.38;1.02;;;14.80;1.00;;;;;;10442127;28;20279;-78
2023/10/03 21:47:40;;;;;;;2.35;1.13;;;14.80;1.00;;;;;;10400812;28;20426;-76
2023/10/03 21:53:01;;;;;;;3.30;0.68;;;14.70;99.90;;;;;;10419512;28;20200;-79
2023/10/03 21:58:23;;;;;;;4.60;1.17;;;;;;;;;;10426259;28;20233;-78
2023/10/03 22:03:45;;;;;;;1.95;0.93;;;14.50;1.00;;;;;;10440781;28;20214;-78
2023/10/03 22:09:09;;;;;;;1.58;0.98;;;14.50;1.00;;;;;;10440723;28;20228;-77
2023/10/03 22:14:30;;;;;;;2.35;0.95;;;14.50;1.00;;;;;;10440607;28;20194;-76
2023/10/03 22:19:53;;;;;;;4.33;1.17;;;14.40;1.00;;;;;;10439664;28;20211;-77
2023/10/03 22:25:15;;;;;;;4.32;1.20;;;14.30;1.00;;;;;;10440727;28;20394;-78
2023/10/03 22:30:37;;;;;;;6.47;1.40;;;;;;;;;;10425700;28;20219;-78
2023/10/03 22:35:59;;;;;;;5.10;1.40;;;14.20;1.00;;;;;;10454272;28;20187;-77
2023/10/03 22:41:21;;;;;;;5.72;1.30;;;14.10;2.60;;;;;;10414848;28;20390;-78
2023/10/03 22:46:42;;;;;;;5.30;1.75;;;14.10;1.00;;;;;;10433116;28;20227;-77
2023/10/03 22:52:04;;;;;;;7.85;2.10;;;14.10;1.00;;;;;;10439594;28;20199;-77
2023/10/03 22:57:25;;;;;;;4.53;1.63;;;14.10;1.00;;;;;;10425097;28;20203;-76
2023/10/03 23:02:47;;;;;;;3.17;1.60;;;14.10;1.00;;;;;;10438693;28;20253;-76
2023/10/03 23:08:08;;;;;;;4.00;1.83;;;14.00;1.00;;;;;;10439290;28;20235;-76
2023/10/03 23:13:29;;;;;;;6.60;2.13;;;14.00;1.00;;;;;;10461510;28;20211;-77
2023/10/03 23:18:50;;;;;;;5.55;1.40;;;13.90;5.00;;;;;;10398229;28;20197;-77
2023/10/03 23:24:15;;;;;;;5.43;1.92;;;13.90;1.00;;;;;;10397407;28;20196;-76
2023/10/03 23:29:36;;;;;;;4.57;1.60;;;13.90;99.90;;;;;;10429777;28;20545;-77
2023/10/03 23:34:58;;;;;;;8.47;2.23;;;13.80;99.90;;;;;;10438566;28;20241;-78
2023/10/03 23:40:21;;;;;;;7.03;1.77;;;13.70;51.00;;;;;;10437194;28;20394;-77
2023/10/03 23:45:42;;;;;;;6.30;1.50;;;13.60;99.90;;;;;;10448271;28;20199;-76
2023/10/03 23:51:03;;;;;;;5.17;1.33;;;;;;;;;;10473135;28;20233;-77
2023/10/03 23:56:25;;;;;;;9.37;1.40;;;13.50;1.00;;;;;;10437959;28;20505;-76
